Cincinnati Northern Kentucky International Airport
KCVG : rendu visible

Aérodrome :











RETROUVEZ-NOUS SUR...

 
LOGIN :

S'inscrire | Disclaimer

   EN    FR    IT 

 









Légende :    VFR   VFR Marginal   IFR   IFR Intensif   IFR Très Intensif
Visi : 
Plafond : 
>= 8 km
>= 3000ft
5 à 8 km
1000 à 3000 ft
1500m à 5 km
500 à 1000 ft
800 à 1500m
200 à 500 ft
< 800m
< 200 ft
Symboles :   Orages  Brouillard  Fortes neiges  Fortes précipitations  Vent > 20 kt






- Altitude de l'aérodrome : 896 ft
- Code IATA : CVG


KCVG - Cincinnati Northern Kentucky International

DERNIER METAR :
  • 182352Z 02010KT 10SM CLR 17/03 A3022 RMK AO2 SLP230 T01670033 10206 20167 53009

METARs EXPIRÉS :
  • 182252Z 02011KT 10SM CLR 18/03 A3021 RMK AO2 SLP226 T01830028
  • 182152Z 02011G20KT 10SM CLR 19/03 A3020 RMK AO2 SLP222 T01940028

TAF KCVG
Valide du 19 à 00h jusqu'au 20 à 06h UTC


182324Z 1900/2006 02011KT P6SM SKC
FM190200 04006KT P6SM SKC
FM191400 06011KT P6SM SKC
FM200000 05005KT P6SM FEW050
FIR KZID / Amérique du Nord



MET'MAP, la Météo Aéronautique d'un coup d'oeil ! - Copyright ORBIFLY Décembre 2007 - Disclaimer

ORBIFLY MET'MAP TEAM :

Programmation & Développement : Alexandra Zaïnal
Sur une idée originale de : Baudouin d'Aumeries
Assistance à la programmation : Marc-Olivier Méhu
Soutien technique & logistique : Manuel Goepfert

Contact : metmap@orbifly.com




SOURCES & CREDITS :

   NOAA       Earth
Advisory